sensor_id;sensor_type;location;lat;lon;timestamp;pressure;altitude;pressure_sealevel;temperature;humidity
11212;BME280;5663;50.864;12.096;2023-03-15T00:01:21;98734.81;;;4.59;70.68
11212;BME280;5663;50.864;12.096;2023-03-15T00:03:51;98740.06;;;4.56;70.41
11212;BME280;5663;50.864;12.096;2023-03-15T00:06:21;98736.69;;;4.54;70.69
11212;BME280;5663;50.864;12.096;2023-03-15T00:08:48;98745.44;;;4.50;70.49
11212;BME280;5663;50.864;12.096;2023-03-15T00:11:18;98720.56;;;4.25;70.43
11212;BME280;5663;50.864;12.096;2023-03-15T00:13:46;98756.16;;;4.37;71.09
11212;BME280;5663;50.864;12.096;2023-03-15T00:16:13;98772.63;;;4.33;70.64
11212;BME280;5663;50.864;12.096;2023-03-15T00:18:42;98751.25;;;4.31;70.60
11212;BME280;5663;50.864;12.096;2023-03-15T00:21:10;98737.09;;;4.19;70.98
11212;BME280;5663;50.864;12.096;2023-03-15T00:23:38;98759.91;;;4.29;70.70
11212;BME280;5663;50.864;12.096;2023-03-15T00:26:06;98758.34;;;4.25;70.76
11212;BME280;5663;50.864;12.096;2023-03-15T00:28:35;98750.00;;;4.18;71.09
11212;BME280;5663;50.864;12.096;2023-03-15T00:31:04;98765.34;;;4.21;71.30
11212;BME280;5663;50.864;12.096;2023-03-15T02:33:54;98861.75;;;3.28;71.57
11212;BME280;5663;50.864;12.096;2023-03-15T02:36:24;98843.47;;;3.09;71.29
11212;BME280;5663;50.864;12.096;2023-03-15T02:38:52;98859.44;;;3.19;71.64
11212;BME280;5663;50.864;12.096;2023-03-15T02:41:23;98873.09;;;3.21;71.31
11212;BME280;5663;50.864;12.096;2023-03-15T02:43:55;98885.13;;;3.19;71.15
11212;BME280;5663;50.864;12.096;2023-03-15T02:46:25;98875.88;;;3.13;71.52
11212;BME280;5663;50.864;12.096;2023-03-15T02:48:54;98885.31;;;3.13;71.62
11212;BME280;5663;50.864;12.096;2023-03-15T02:51:23;98891.44;;;3.09;71.38
11212;BME280;5663;50.864;12.096;2023-03-15T02:53:53;98895.75;;;3.07;71.59
11212;BME280;5663;50.864;12.096;2023-03-15T02:56:21;98831.19;;;2.60;71.24
11212;BME280;5663;50.864;12.096;2023-03-15T02:58:49;98898.66;;;2.94;71.25
11212;BME280;5663;50.864;12.096;2023-03-15T03:01:17;98882.56;;;2.89;71.16
11212;BME280;5663;50.864;12.096;2023-03-15T03:03:46;98901.22;;;2.96;71.30
11212;BME280;5663;50.864;12.096;2023-03-15T03:06:16;98872.91;;;2.66;71.59
11212;BME280;5663;50.864;12.096;2023-03-15T03:08:44;98906.47;;;2.91;71.42
11212;BME280;5663;50.864;12.096;2023-03-15T03:11:13;98871.22;;;2.65;71.24
11212;BME280;5663;50.864;12.096;2023-03-15T03:13:41;98907.41;;;2.89;71.25
11212;BME280;5663;50.864;12.096;2023-03-15T03:16:09;98884.00;;;2.68;71.21
11212;BME280;5663;50.864;12.096;2023-03-15T03:18:37;98916.91;;;2.85;71.31
11212;BME280;5663;50.864;12.096;2023-03-15T03:21:07;98919.56;;;2.82;71.30
11212;BME280;5663;50.864;12.096;2023-03-15T03:23:36;98918.91;;;2.74;71.66
11212;BME280;5663;50.864;12.096;2023-03-15T03:26:12;98932.56;;;2.76;71.49
11212;BME280;5663;50.864;12.096;2023-03-15T03:28:43;98925.72;;;2.75;71.43
11212;BME280;5663;50.864;12.096;2023-03-15T03:31:17;98936.09;;;2.72;71.63
11212;BME280;5663;50.864;12.096;2023-03-15T03:33:46;98946.38;;;2.72;71.24
11212;BME280;5663;50.864;12.096;2023-03-15T03:36:13;98943.06;;;2.67;71.63
11212;BME280;5663;50.864;12.096;2023-03-15T03:38:44;98945.72;;;2.64;71.66
11212;BME280;5663;50.864;12.096;2023-03-15T03:41:13;98934.72;;;2.59;71.76
11212;BME280;5663;50.864;12.096;2023-03-15T03:43:41;98954.34;;;2.61;71.15
11212;BME280;5663;50.864;12.096;2023-03-15T03:46:08;98957.03;;;2.57;71.66
11212;BME280;5663;50.864;12.096;2023-03-15T03:48:36;98956.31;;;2.52;71.71
11212;BME280;5663;50.864;12.096;2023-03-15T03:51:03;98968.19;;;2.54;71.58
11212;BME280;5663;50.864;12.096;2023-03-15T03:53:31;98969.16;;;2.50;71.46
11212;BME280;5663;50.864;12.096;2023-03-15T03:56:03;98975.22;;;2.47;71.34
11212;BME280;5663;50.864;12.096;2023-03-15T03:58:31;98978.66;;;2.46;71.67
11212;BME280;5663;50.864;12.096;2023-03-15T04:00:59;98982.28;;;2.38;71.26
11212;BME280;5663;50.864;12.096;2023-03-15T04:03:26;98979.91;;;2.30;71.74
11212;BME280;5663;50.864;12.096;2023-03-15T04:05:54;98996.91;;;2.34;71.16
11212;BME280;5663;50.864;12.096;2023-03-15T04:08:23;98995.28;;;2.30;71.20
11212;BME280;5663;50.864;12.096;2023-03-15T04:10:51;98981.78;;;2.24;71.50
11212;BME280;5663;50.864;12.096;2023-03-15T04:13:24;98987.75;;;2.24;71.31
11212;BME280;5663;50.864;12.096;2023-03-15T04:15:52;98988.66;;;2.21;71.57
11212;BME280;5663;50.864;12.096;2023-03-15T04:18:22;98999.81;;;2.19;71.30
11212;BME280;5663;50.864;12.096;2023-03-15T04:20:49;99004.16;;;2.17;71.24
11212;BME280;5663;50.864;12.096;2023-03-15T04:23:20;98992.34;;;2.10;71.23
11212;BME280;5663;50.864;12.096;2023-03-15T04:25:49;98984.00;;;2.02;71.06
11212;BME280;5663;50.864;12.096;2023-03-15T04:28:16;99011.97;;;2.12;71.19
11212;BME280;5663;50.864;12.096;2023-03-15T04:30:46;98998.59;;;2.00;71.31
11212;BME280;5663;50.864;12.096;2023-03-15T04:33:14;99015.50;;;2.07;71.25
11212;BME280;5663;50.864;12.096;2023-03-15T06:35:54;99165.03;;;2.51;72.00
11212;BME280;5663;50.864;12.096;2023-03-15T06:38:21;99157.22;;;2.57;72.28
11212;BME280;5663;50.864;12.096;2023-03-15T06:40:49;99163.91;;;2.64;72.08
11212;BME280;5663;50.864;12.096;2023-03-15T06:43:18;99166.34;;;2.70;72.21
11212;BME280;5663;50.864;12.096;2023-03-15T06:45:48;99162.72;;;2.79;72.40
11212;BME280;5663;50.864;12.096;2023-03-15T06:48:16;99169.41;;;2.86;72.47
11212;BME280;5663;50.864;12.096;2023-03-15T06:50:44;99172.69;;;2.92;72.31
11212;BME280;5663;50.864;12.096;2023-03-15T06:53:13;99173.41;;;2.97;72.02
11212;BME280;5663;50.864;12.096;2023-03-15T06:55:42;99175.03;;;3.02;72.17
11212;BME280;5663;50.864;12.096;2023-03-15T06:58:10;99178.25;;;3.10;72.53
11212;BME280;5663;50.864;12.096;2023-03-15T07:00:38;99185.00;;;3.15;72.37
11212;BME280;5663;50.864;12.096;2023-03-15T07:03:06;99188.22;;;3.22;72.56
11212;BME280;5663;50.864;12.096;2023-03-15T07:05:34;99187.25;;;3.28;72.33
11212;BME280;5663;50.864;12.096;2023-03-15T07:08:02;99194.84;;;3.32;72.71
11212;BME280;5663;50.864;12.096;2023-03-15T07:10:31;99189.53;;;3.38;72.34
11212;BME280;5663;50.864;12.096;2023-03-15T07:13:00;99194.63;;;3.41;72.43
11212;BME280;5663;50.864;12.096;2023-03-15T07:15:30;99193.59;;;3.49;72.69
11212;BME280;5663;50.864;12.096;2023-03-15T07:17:58;99190.13;;;3.51;72.69
11212;BME280;5663;50.864;12.096;2023-03-15T08:22:14;99231.16;;;4.80;70.70
11212;BME280;5663;50.864;12.096;2023-03-15T08:24:41;99246.09;;;4.97;70.87
11212;BME280;5663;50.864;12.096;2023-03-15T08:27:10;99255.41;;;5.03;70.47
11212;BME280;5663;50.864;12.096;2023-03-15T08:29:38;99247.56;;;5.06;70.43
11212;BME280;5663;50.864;12.096;2023-03-15T08:32:07;99249.13;;;5.11;70.38
11212;BME280;5663;50.864;12.096;2023-03-15T08:34:34;99253.22;;;5.17;70.36
11212;BME280;5663;50.864;12.096;2023-03-15T08:37:02;99260.78;;;5.23;70.14
11212;BME280;5663;50.864;12.096;2023-03-15T08:39:32;99241.16;;;5.19;70.07
11212;BME280;5663;50.864;12.096;2023-03-15T08:42:01;99247.69;;;5.29;69.96
11212;BME280;5663;50.864;12.096;2023-03-15T08:44:29;99265.41;;;5.40;69.86
11212;BME280;5663;50.864;12.096;2023-03-15T08:46:57;99231.03;;;5.13;69.77
11212;BME280;5663;50.864;12.096;2023-03-15T08:49:25;99275.53;;;5.46;69.74
11212;BME280;5663;50.864;12.096;2023-03-15T08:51:52;99279.75;;;5.49;69.45
11212;BME280;5663;50.864;12.096;2023-03-15T08:54:20;99277.97;;;5.51;69.47
11212;BME280;5663;50.864;12.096;2023-03-15T08:56:50;99281.16;;;5.59;68.73
11212;BME280;5663;50.864;12.096;2023-03-15T08:59:18;99251.31;;;5.50;68.88
11212;BME280;5663;50.864;12.096;2023-03-15T09:01:46;99284.13;;;5.73;68.73
11212;BME280;5663;50.864;12.096;2023-03-15T09:04:14;99275.28;;;5.80;68.80
11212;BME280;5663;50.864;12.096;2023-03-15T09:06:41;99254.81;;;5.74;68.65
11212;BME280;5663;50.864;12.096;2023-03-15T09:09:10;99240.31;;;5.72;68.48
11212;BME280;5663;50.864;12.096;2023-03-15T09:11:42;99286.41;;;6.09;68.45
11212;BME280;5663;50.864;12.096;2023-03-15T09:14:11;99289.78;;;6.11;68.16
11212;BME280;5663;50.864;12.096;2023-03-15T09:16:39;99294.72;;;6.17;68.28
11212;BME280;5663;50.864;12.096;2023-03-15T09:19:07;99294.56;;;6.22;68.44
11212;BME280;5663;50.864;12.096;2023-03-15T10:20:39;99338.13;;;7.50;66.91
11212;BME280;5663;50.864;12.096;2023-03-15T10:23:13;99339.09;;;7.47;66.68
11212;BME280;5663;50.864;12.096;2023-03-15T10:25:43;99348.81;;;7.40;66.43
11212;BME280;5663;50.864;12.096;2023-03-15T10:28:22;99342.09;;;7.36;66.65
11212;BME280;5663;50.864;12.096;2023-03-15T10:30:50;99339.31;;;7.41;66.24
11212;BME280;5663;50.864;12.096;2023-03-15T10:33:22;99335.84;;;7.42;66.50
11212;BME280;5663;50.864;12.096;2023-03-15T10:35:54;99332.28;;;7.45;66.67
11212;BME280;5663;50.864;12.096;2023-03-15T10:38:23;99339.81;;;7.51;66.68
11212;BME280;5663;50.864;12.096;2023-03-15T10:40:54;99338.53;;;7.61;66.41
11212;BME280;5663;50.864;12.096;2023-03-15T10:43:24;99308.88;;;7.48;66.39
11212;BME280;5663;50.864;12.096;2023-03-15T10:45:58;99305.28;;;7.52;66.08
11212;BME280;5663;50.864;12.096;2023-03-15T10:48:28;99311.91;;;7.59;66.05
11212;BME280;5663;50.864;12.096;2023-03-15T10:51:01;99334.50;;;7.76;65.24
11212;BME280;5663;50.864;12.096;2023-03-15T10:53:29;99326.03;;;7.72;65.08
11212;BME280;5663;50.864;12.096;2023-03-15T10:56:00;99332.00;;;7.74;65.33
11212;BME280;5663;50.864;12.096;2023-03-15T10:58:38;99329.56;;;7.70;65.27
11212;BME280;5663;50.864;12.096;2023-03-15T11:01:10;99327.06;;;7.68;64.99
11212;BME280;5663;50.864;12.096;2023-03-15T11:03:40;99326.44;;;7.61;65.05
11212;BME280;5663;50.864;12.096;2023-03-15T11:06:21;99326.81;;;7.52;65.06
11212;BME280;5663;50.864;12.096;2023-03-15T11:08:52;99326.63;;;7.35;64.86
11212;BME280;5663;50.864;12.096;2023-03-15T11:11:19;99354.56;;;7.25;64.88
11212;BME280;5663;50.864;12.096;2023-03-15T11:13:58;99361.63;;;6.98;64.62
11212;BME280;5663;50.864;12.096;2023-03-15T11:16:33;99363.31;;;6.74;64.93
11212;BME280;5663;50.864;12.096;2023-03-15T11:19:02;99365.09;;;6.49;65.55
11212;BME280;5663;50.864;12.096;2023-03-15T11:21:40;99358.59;;;6.37;65.64
11212;BME280;5663;50.864;12.096;2023-03-15T11:24:19;99359.84;;;6.25;65.80
11212;BME280;5663;50.864;12.096;2023-03-15T11:26:49;99360.28;;;6.13;65.89
11212;BME280;5663;50.864;12.096;2023-03-15T11:29:25;99363.84;;;6.09;66.46
11212;BME280;5663;50.864;12.096;2023-03-15T11:31:54;99356.78;;;6.14;66.65
11212;BME280;5663;50.864;12.096;2023-03-15T11:34:33;99358.50;;;6.15;66.82
11212;BME280;5663;50.864;12.096;2023-03-15T11:37:11;99351.63;;;6.14;66.67
11212;BME280;5663;50.864;12.096;2023-03-15T11:39:45;99344.47;;;6.22;66.64
11212;BME280;5663;50.864;12.096;2023-03-15T11:42:21;99302.97;;;6.02;66.49
11212;BME280;5663;50.864;12.096;2023-03-15T11:44:54;99349.94;;;6.38;66.47
11212;BME280;5663;50.864;12.096;2023-03-15T11:47:36;99331.03;;;6.37;66.47
11212;BME280;5663;50.864;12.096;2023-03-15T11:50:11;99341.84;;;6.49;66.40
11212;BME280;5663;50.864;12.096;2023-03-15T11:52:41;99345.31;;;6.73;66.25
11212;BME280;5663;50.864;12.096;2023-03-15T11:55:16;99367.31;;;7.08;66.55
11212;BME280;5663;50.864;12.096;2023-03-15T11:57:47;99339.31;;;7.19;66.40
11212;BME280;5663;50.864;12.096;2023-03-15T12:00:24;99356.03;;;7.32;66.03
11212;BME280;5663;50.864;12.096;2023-03-15T12:02:55;99353.56;;;7.29;65.94
11212;BME280;5663;50.864;12.096;2023-03-15T12:05:44;99350.50;;;7.20;65.33
11212;BME280;5663;50.864;12.096;2023-03-15T12:08:20;99335.88;;;6.95;65.94
11212;BME280;5663;50.864;12.096;2023-03-15T12:10:51;99360.03;;;6.94;66.34
11212;BME280;5663;50.864;12.096;2023-03-15T12:13:24;99361.28;;;6.84;66.50
11212;BME280;5663;50.864;12.096;2023-03-15T12:15:53;99361.66;;;6.73;66.49
11212;BME280;5663;50.864;12.096;2023-03-15T12:18:25;99365.41;;;6.64;66.64
11212;BME280;5663;50.864;12.096;2023-03-15T17:23:34;99646.81;;;5.51;62.41
11212;BME280;5663;50.864;12.096;2023-03-15T17:26:02;99657.25;;;5.44;62.42
11212;BME280;5663;50.864;12.096;2023-03-15T17:28:30;99649.78;;;5.35;62.87
11212;BME280;5663;50.864;12.096;2023-03-15T17:30:57;99658.53;;;5.28;63.19
11212;BME280;5663;50.864;12.096;2023-03-15T17:33:26;99662.16;;;5.21;63.48
11212;BME280;5663;50.864;12.096;2023-03-15T17:35:53;99666.59;;;5.14;63.19
11212;BME280;5663;50.864;12.096;2023-03-15T17:38:27;99662.59;;;5.03;63.41
11212;BME280;5663;50.864;12.096;2023-03-15T17:41:00;99668.78;;;4.94;63.68
11212;BME280;5663;50.864;12.096;2023-03-15T17:43:28;99672.50;;;4.82;63.31
11212;BME280;5663;50.864;12.096;2023-03-15T17:45:57;99671.88;;;4.73;64.23
11212;BME280;5663;50.864;12.096;2023-03-15T17:48:27;99644.09;;;4.48;64.08
11212;BME280;5663;50.864;12.096;2023-03-15T17:50:54;99680.84;;;4.55;64.14
11212;BME280;5663;50.864;12.096;2023-03-15T17:53:24;99684.44;;;4.48;64.45
11212;BME280;5663;50.864;12.096;2023-03-15T17:55:51;99681.97;;;4.41;64.28
11212;BME280;5663;50.864;12.096;2023-03-15T17:58:22;99643.19;;;4.09;64.69
11212;BME280;5663;50.864;12.096;2023-03-15T18:00:53;99671.38;;;4.15;65.10
11212;BME280;5663;50.864;12.096;2023-03-15T18:03:22;99694.41;;;4.21;65.10
11212;BME280;5663;50.864;12.096;2023-03-15T18:05:52;99691.97;;;4.15;65.21
11212;BME280;5663;50.864;12.096;2023-03-15T18:08:20;99693.78;;;4.10;64.83
11212;BME280;5663;50.864;12.096;2023-03-15T18:10:50;99694.75;;;4.03;65.05
11212;BME280;5663;50.864;12.096;2023-03-15T18:13:21;99694.94;;;3.95;64.98
11212;BME280;5663;50.864;12.096;2023-03-15T18:15:51;99692.50;;;3.87;64.96
11212;BME280;5663;50.864;12.096;2023-03-15T18:18:19;99684.16;;;3.73;65.67
11212;BME280;5663;50.864;12.096;2023-03-15T18:20:48;99711.50;;;3.79;65.57
11212;BME280;5663;50.864;12.096;2023-03-15T20:23:48;99833.91;;;1.79;68.48
11212;BME280;5663;50.864;12.096;2023-03-15T20:26:16;99828.81;;;1.76;68.44
11212;BME280;5663;50.864;12.096;2023-03-15T20:28:45;99815.22;;;1.68;68.46
11212;BME280;5663;50.864;12.096;2023-03-15T20:31:15;99830.53;;;1.71;68.47
11212;BME280;5663;50.864;12.096;2023-03-15T20:33:43;99832.28;;;1.67;68.55
11212;BME280;5663;50.864;12.096;2023-03-15T20:36:13;99836.56;;;1.68;68.53
11212;BME280;5663;50.864;12.096;2023-03-15T20:38:41;99839.97;;;1.67;68.61
11212;BME280;5663;50.864;12.096;2023-03-15T20:41:11;99831.50;;;1.59;68.66
11212;BME280;5663;50.864;12.096;2023-03-15T20:43:40;99840.00;;;1.63;68.61
11212;BME280;5663;50.864;12.096;2023-03-15T20:46:08;99847.75;;;1.60;68.71
11212;BME280;5663;50.864;12.096;2023-03-15T20:48:38;99852.00;;;1.59;69.16
11212;BME280;5663;50.864;12.096;2023-03-15T20:51:06;99826.50;;;1.41;68.90
11212;BME280;5663;50.864;12.096;2023-03-15T20:53:35;99858.03;;;1.51;68.77
11212;BME280;5663;50.864;12.096;2023-03-15T20:56:04;99862.31;;;1.53;68.76
11212;BME280;5663;50.864;12.096;2023-03-15T20:58:34;99825.75;;;1.22;68.72
11212;BME280;5663;50.864;12.096;2023-03-15T21:01:04;99874.31;;;1.45;68.64
11212;BME280;5663;50.864;12.096;2023-03-15T21:03:32;99873.47;;;1.41;68.63
11212;BME280;5663;50.864;12.096;2023-03-15T21:06:01;99870.09;;;1.36;68.77
11212;BME280;5663;50.864;12.096;2023-03-15T21:08:29;99868.41;;;1.32;68.72
11212;BME280;5663;50.864;12.096;2023-03-15T21:10:57;99848.84;;;1.16;68.81
11212;BME280;5663;50.864;12.096;2023-03-15T21:13:24;99874.41;;;1.25;69.04
11212;BME280;5663;50.864;12.096;2023-03-15T21:15:53;99876.97;;;1.25;69.12
11212;BME280;5663;50.864;12.096;2023-03-15T21:18:23;99870.16;;;1.24;68.84
11212;BME280;5663;50.864;12.096;2023-03-15T21:20:55;99876.13;;;1.23;69.04
11212;BME280;5663;50.864;12.096;2023-03-15T21:23:23;99873.59;;;1.20;69.03
11212;BME280;5663;50.864;12.096;2023-03-15T21:25:53;99887.22;;;1.22;69.31
11212;BME280;5663;50.864;12.096;2023-03-15T21:28:22;99883.84;;;1.20;69.10
11212;BME280;5663;50.864;12.096;2023-03-15T21:30:50;99888.09;;;1.18;68.96
11212;BME280;5663;50.864;12.096;2023-03-15T21:33:23;99887.28;;;1.16;69.13
11212;BME280;5663;50.864;12.096;2023-03-15T21:35:53;99885.56;;;1.13;69.06
11212;BME280;5663;50.864;12.096;2023-03-15T21:38:21;99888.16;;;1.07;68.85
11212;BME280;5663;50.864;12.096;2023-03-15T21:40:53;99890.72;;;1.09;69.01
11212;BME280;5663;50.864;12.096;2023-03-15T21:43:24;99883.91;;;1.05;69.09
11212;BME280;5663;50.864;12.096;2023-03-15T21:45:52;99897.53;;;1.04;69.00
11212;BME280;5663;50.864;12.096;2023-03-15T21:48:22;99895.00;;;1.02;69.42
11212;BME280;5663;50.864;12.096;2023-03-15T21:50:50;99829.47;;;0.57;68.89
11212;BME280;5663;50.864;12.096;2023-03-15T21:53:18;99900.97;;;0.99;69.19
11212;BME280;5663;50.864;12.096;2023-03-15T21:55:46;99897.59;;;0.97;69.36
11212;BME280;5663;50.864;12.096;2023-03-15T21:58:14;99907.84;;;0.96;69.23
11212;BME280;5663;50.864;12.096;2023-03-15T22:00:44;99913.81;;;0.96;69.46
11212;BME280;5663;50.864;12.096;2023-03-15T22:03:11;99907.84;;;0.94;69.16
11212;BME280;5663;50.864;12.096;2023-03-15T22:05:44;99882.31;;;0.76;69.27
11212;BME280;5663;50.864;12.096;2023-03-15T22:08:12;99916.38;;;0.90;69.27
11212;BME280;5663;50.864;12.096;2023-03-15T22:10:39;99909.56;;;0.83;68.97
11212;BME280;5663;50.864;12.096;2023-03-15T22:13:07;99916.41;;;0.84;69.08
11212;BME280;5663;50.864;12.096;2023-03-15T22:15:36;99909.59;;;0.77;69.25
11212;BME280;5663;50.864;12.096;2023-03-15T22:18:04;99914.72;;;0.74;68.98
11212;BME280;5663;50.864;12.096;2023-03-15T22:20:31;99916.44;;;0.69;69.08
11212;BME280;5663;50.864;12.096;2023-03-15T22:23:00;99915.56;;;0.67;69.11
11212;BME280;5663;50.864;12.096;2023-03-15T22:25:29;99882.38;;;0.42;69.00
11212;BME280;5663;50.864;12.096;2023-03-15T22:27:57;99912.19;;;0.62;69.06
11212;BME280;5663;50.864;12.096;2023-03-15T22:30:25;99922.41;;;0.62;69.22
11212;BME280;5663;50.864;12.096;2023-03-15T22:32:53;99923.25;;;0.59;69.11
11212;BME280;5663;50.864;12.096;2023-03-15T22:35:20;99921.59;;;0.57;69.13
11212;BME280;5663;50.864;12.096;2023-03-15T22:37:49;99916.47;;;0.54;69.13
11212;BME280;5663;50.864;12.096;2023-03-15T22:40:23;99913.03;;;0.52;69.18
11212;BME280;5663;50.864;12.096;2023-03-15T22:42:53;99916.47;;;0.47;69.39
11212;BME280;5663;50.864;12.096;2023-03-15T22:45:22;99907.94;;;0.45;69.41
11212;BME280;5663;50.864;12.096;2023-03-15T22:47:51;99916.47;;;0.44;69.44
11212;BME280;5663;50.864;12.096;2023-03-15T22:50:18;99915.63;;;0.42;69.20
11212;BME280;5663;50.864;12.096;2023-03-15T22:52:47;99920.72;;;0.39;69.09
11212;BME280;5663;50.864;12.096;2023-03-15T22:55:17;99918.19;;;0.36;69.16
11212;BME280;5663;50.864;12.096;2023-03-15T22:57:48;99919.91;;;0.34;69.51
11212;BME280;5663;50.864;12.096;2023-03-15T23:00:19;99913.06;;;0.30;69.15
11212;BME280;5663;50.864;12.096;2023-03-15T23:02:49;99839.78;;;-0.14;69.01
11212;BME280;5663;50.864;12.096;2023-03-15T23:05:18;99919.88;;;0.31;69.21
11212;BME280;5663;50.864;12.096;2023-03-15T23:07:46;99928.41;;;0.30;69.33
11212;BME280;5663;50.864;12.096;2023-03-15T23:10:15;99925.03;;;0.28;69.33
11212;BME280;5663;50.864;12.096;2023-03-15T23:12:43;99925.84;;;0.27;69.21
11212;BME280;5663;50.864;12.096;2023-03-15T23:15:12;99931.81;;;0.23;69.17
11212;BME280;5663;50.864;12.096;2023-03-15T23:17:40;99938.66;;;0.18;69.18
11212;BME280;5663;50.864;12.096;2023-03-15T23:20:12;99878.13;;;-0.17;69.07
11212;BME280;5663;50.864;12.096;2023-03-15T23:22:40;99941.22;;;0.16;69.15
11212;BME280;5663;50.864;12.096;2023-03-15T23:25:09;99948.88;;;0.15;69.27
11212;BME280;5663;50.864;12.096;2023-03-15T23:27:37;99953.13;;;0.11;69.22
11212;BME280;5663;50.864;12.096;2023-03-15T23:30:06;99944.59;;;0.08;69.24
11212;BME280;5663;50.864;12.096;2023-03-15T23:32:36;99942.06;;;0.05;69.53
11212;BME280;5663;50.864;12.096;2023-03-15T23:35:05;99932.66;;;-0.04;69.53
11212;BME280;5663;50.864;12.096;2023-03-15T23:37:34;99941.19;;;-0.01;69.42
11212;BME280;5663;50.864;12.096;2023-03-15T23:40:02;99931.81;;;-0.02;69.40
11212;BME280;5663;50.864;12.096;2023-03-15T23:42:34;99944.63;;;-0.03;69.42
11212;BME280;5663;50.864;12.096;2023-03-15T23:45:03;99936.06;;;-0.13;69.05
11212;BME280;5663;50.864;12.096;2023-03-15T23:47:32;99953.13;;;-0.06;69.46
11212;BME280;5663;50.864;12.096;2023-03-15T23:50:01;99934.38;;;-0.15;69.26
11212;BME280;5663;50.864;12.096;2023-03-15T23:52:29;99957.41;;;-0.08;69.45
11212;BME280;5663;50.864;12.096;2023-03-15T23:54:57;99949.72;;;-0.15;69.14
11212;BME280;5663;50.864;12.096;2023-03-15T23:57:25;99946.25;;;-0.20;69.72
11212;BME280;5663;50.864;12.096;2023-03-15T23:59:52;99959.94;;;-0.15;69.33
